Time;durP1;ratioP1;P1;durP2;ratioP2;P2;SDS_P1;SDS_P2;PMS_P1;PMS_P2;Temp;Humidity;BMP_temperature;BMP_pressure;BME280_temperature;BME280_humidity;BME280_pressure;Samples;Min_cycle;Max_cycle;Signal;HPM_P1;HPM_P2
2022/06/07 00:00:15;;;;;;;;;;;29.20;47.30;;;;;;677805;29;875;-84
2022/06/07 00:00:36;;;;;;;;;;;29.20;47.10;;;;;;677816;29;843;-85
2022/06/07 00:00:58;;;;;;;;;;;29.20;47.20;;;;;;677934;29;812;-85
2022/06/07 00:01:19;;;;;;;;;;;29.20;47.10;;;;;;678432;29;895;-85
2022/06/07 00:01:39;;;;;;;;;;;29.20;47.20;;;;;;680463;29;804;-85
2022/06/07 00:02:00;;;;;;;;;;;29.20;47.30;;;;;;680488;29;924;-85
2022/06/07 00:02:25;;;;;;;;;;;29.20;47.20;;;;;;680413;29;878;-84
2022/06/07 00:02:46;;;;;;;;;;;29.10;47.30;;;;;;680352;29;1297;-84
2022/06/07 00:03:06;;;;;;;;;;;29.20;47.50;;;;;;680358;29;1359;-85
2022/06/07 00:03:27;;;;;;;;;;;29.20;47.80;;;;;;680577;29;1110;-85
2022/06/07 00:03:48;;;;;;;;;;;29.20;47.50;;;;;;680536;29;856;-84
2022/06/07 00:04:09;;;;;;;;;;;29.20;47.50;;;;;;680406;29;816;-85
2022/06/07 00:04:29;;;;;;;;;;;29.20;47.50;;;;;;680563;29;839;-84
2022/06/07 00:04:50;;;;;;;;;;;29.10;47.40;;;;;;680425;29;902;-85
2022/06/07 00:05:11;;;;;;;;;;;29.20;47.40;;;;;;680475;29;808;-84
2022/06/07 00:05:31;;;;;;;;;;;29.10;47.50;;;;;;680411;29;847;-84
2022/06/07 00:05:52;;;;;;;;;;;29.10;47.50;;;;;;680594;29;955;-84
2022/06/07 00:06:12;;;;;;;;;;;29.10;47.30;;;;;;680404;29;788;-85
2022/06/07 00:06:33;;;;;;;;;;;29.20;47.30;;;;;;680456;29;835;-84
2022/06/07 00:06:53;;;;;;;;;;;29.20;47.30;;;;;;680628;29;804;-84
2022/06/07 00:07:14;;;;;;;;;;;29.10;47.40;;;;;;680454;29;848;-85
2022/06/07 00:07:35;;;;;;;;;;;29.20;47.50;;;;;;677145;29;1456;-84
2022/06/07 00:07:55;;;;;;;;;;;29.20;47.50;;;;;;677963;29;809;-84
2022/06/07 00:08:18;;;;;;;;;;;26.70;45.60;;;;;;677806;29;737;-84
2022/06/07 00:08:38;;;;;;;;;;;29.20;47.30;;;;;;677758;29;809;-84
2022/06/07 00:08:59;;;;;;;;;;;29.10;47.40;;;;;;677819;29;853;-85
2022/06/07 00:09:19;;;;;;;;;;;29.10;47.40;;;;;;678336;29;812;-84
2022/06/07 00:09:40;;;;;;;;;;;29.10;47.40;;;;;;680340;29;1295;-84
2022/06/07 00:10:01;;;;;;;;;;;29.10;47.50;;;;;;680530;29;966;-85
2022/06/07 00:10:22;;;;;;;;;;;29.20;47.50;;;;;;680506;29;788;-84
2022/06/07 00:10:43;;;;;;;;;;;29.10;47.40;;;;;;680355;29;895;-84
2022/06/07 00:11:04;;;;;;;;;;;29.10;47.40;;;;;;680372;29;930;-85
2022/06/07 00:11:24;;;;;;;;;;;29.10;47.40;;;;;;680512;29;796;-84
2022/06/07 00:11:45;;;;;;;;;;;29.10;47.40;;;;;;680460;29;957;-84
2022/06/07 00:12:06;;;;;;;;;;;29.20;47.50;;;;;;680353;29;907;-85
2022/06/07 00:12:27;;;;;;;;;;;29.10;47.40;;;;;;680520;29;1070;-84
2022/06/07 00:12:47;;;;;;;;;;;29.10;47.50;;;;;;680307;29;832;-85
2022/06/07 00:13:08;;;;;;;;;;;29.10;47.50;;;;;;680442;29;967;-84
2022/06/07 00:13:29;;;;;;;;;;;29.10;47.70;;;;;;680420;29;840;-85
2022/06/07 00:13:49;;;;;;;;;;;29.10;47.80;;;;;;680390;29;863;-84
2022/06/07 00:14:10;;;;;;;;;;;29.10;48.30;;;;;;680381;29;954;-85
2022/06/07 00:14:32;;;;;;;;;;;29.10;47.60;;;;;;680526;29;1912;-85
2022/06/07 00:14:53;;;;;;;;;;;29.10;47.90;;;;;;677796;29;1100;-85
2022/06/07 00:15:13;;;;;;;;;;;29.10;47.60;;;;;;677772;29;903;-85
2022/06/07 00:15:34;;;;;;;;;;;29.10;47.50;;;;;;677805;29;890;-85
2022/06/07 00:15:54;;;;;;;;;;;29.10;47.50;;;;;;677986;29;904;-84
2022/06/07 00:16:16;;;;;;;;;;;29.10;47.60;;;;;;677727;29;1085;-85
2022/06/07 00:16:37;;;;;;;;;;;29.10;47.60;;;;;;678174;29;887;-85
2022/06/07 00:16:57;;;;;;;;;;;29.10;47.60;;;;;;680490;29;835;-84
2022/06/07 00:17:18;;;;;;;;;;;29.10;47.70;;;;;;680407;29;792;-84
2022/06/07 00:17:39;;;;;;;;;;;29.10;47.50;;;;;;680416;29;863;-85
2022/06/07 00:18:00;;;;;;;;;;;29.10;48.80;;;;;;680504;29;831;-85
2022/06/07 00:18:20;;;;;;;;;;;29.10;47.60;;;;;;680397;29;839;-85
2022/06/07 00:18:41;;;;;;;;;;;29.10;47.60;;;;;;680457;29;803;-85
2022/06/07 00:19:02;;;;;;;;;;;29.10;47.60;;;;;;680301;29;883;-85
2022/06/07 00:19:22;;;;;;;;;;;29.10;47.60;;;;;;680482;29;812;-84
2022/06/07 00:19:43;;;;;;;;;;;29.10;47.90;;;;;;680491;29;792;-85
2022/06/07 00:20:05;;;;;;;;;;;29.10;47.80;;;;;;680021;29;1583;-85
2022/06/07 00:20:25;;;;;;;;;;;29.10;47.80;;;;;;680564;29;846;-85
2022/06/07 00:20:46;;;;;;;;;;;29.10;47.80;;;;;;680413;29;878;-84
2022/06/07 00:21:07;;;;;;;;;;;29.10;47.90;;;;;;680458;29;946;-85
2022/06/07 00:21:29;;;;;;;;;;;29.10;47.70;;;;;;680485;29;874;-85
2022/06/07 00:21:49;;;;;;;;;;;29.10;47.90;;;;;;680384;29;1066;-85
2022/06/07 00:22:10;;;;;;;;;;;29.10;48.40;;;;;;680466;29;780;-84
2022/06/07 00:22:31;;;;;;;;;;;29.10;47.70;;;;;;680504;29;862;-85
2022/06/07 00:22:52;;;;;;;;;;;29.10;47.80;;;;;;680366;29;1311;-85
2022/06/07 00:23:14;;;;;;;;;;;29.10;47.80;;;;;;680426;29;788;-85
2022/06/07 00:23:34;;;;;;;;;;;29.10;47.70;;;;;;680333;29;891;-84
2022/06/07 00:23:59;;;;;;;;;;;29.10;47.80;;;;;;680511;29;847;-84
2022/06/07 00:24:19;;;;;;;;;;;29.10;47.70;;;;;;680382;29;918;-85
2022/06/07 00:24:40;;;;;;;;;;;29.10;47.70;;;;;;680405;29;799;-85
2022/06/07 00:25:01;;;;;;;;;;;29.10;47.80;;;;;;680531;29;831;-85
2022/06/07 00:25:22;;;;;;;;;;;29.10;47.80;;;;;;677184;29;1273;-84
2022/06/07 00:25:45;;;;;;;;;;;29.20;47.90;;;;;;677764;29;519;-85
2022/06/07 00:26:06;;;;;;;;;;;29.20;47.80;;;;;;677812;29;836;-85
2022/06/07 00:26:28;;;;;;;;;;;29.20;47.80;;;;;;677807;29;865;-85
2022/06/07 00:26:48;;;;;;;;;;;29.10;47.70;;;;;;675357;29;1131;-85
2022/06/07 00:27:09;;;;;;;;;;;29.10;47.80;;;;;;675974;29;872;-85
2022/06/07 00:27:30;;;;;;;;;;;29.20;48.70;;;;;;677820;29;828;-85
2022/06/07 00:27:50;;;;;;;;;;;29.20;48.10;;;;;;677781;29;836;-84
2022/06/07 00:28:11;;;;;;;;;;;29.10;47.80;;;;;;677752;29;780;-85
2022/06/07 00:28:32;;;;;;;;;;;29.20;47.80;;;;;;678062;29;840;-84
2022/06/07 00:28:53;;;;;;;;;;;29.10;47.80;;;;;;680535;29;867;-85
2022/06/07 00:29:13;;;;;;;;;;;29.20;49.00;;;;;;682928;28;1099;-85
2022/06/07 00:29:34;;;;;;;;;;;29.20;47.70;;;;;;691272;28;850;-85
2022/06/07 00:29:55;;;;;;;;;;;29.10;47.80;;;;;;691428;28;952;-85
2022/06/07 00:30:16;;;;;;;;;;;29.20;48.80;;;;;;691370;28;913;-84
2022/06/07 00:30:38;;;;;;;;;;;29.10;47.80;;;;;;691284;28;1101;-85
2022/06/07 00:30:59;;;;;;;;;;;29.20;47.80;;;;;;691413;28;901;-85
2022/06/07 00:31:19;;;;;;;;;;;27.80;46.80;;;;;;691338;28;826;-85
2022/06/07 00:31:40;;;;;;;;;;;29.20;48.60;;;;;;691224;28;1055;-85
2022/06/07 00:32:01;;;;;;;;;;;29.20;47.80;;;;;;691511;28;873;-85
2022/06/07 00:32:22;;;;;;;;;;;29.20;47.70;;;;;;691444;28;791;-85
2022/06/07 00:32:44;;;;;;;;;;;29.20;47.70;;;;;;691313;28;858;-85
2022/06/07 00:33:05;;;;;;;;;;;29.20;47.70;;;;;;691138;28;1295;-84
2022/06/07 00:33:26;;;;;;;;;;;29.20;48.30;;;;;;691297;28;815;-85
2022/06/07 00:33:46;;;;;;;;;;;29.20;47.80;;;;;;691112;28;795;-84
2022/06/07 00:34:07;;;;;;;;;;;29.20;47.50;;;;;;691187;28;886;-85
2022/06/07 00:34:28;;;;;;;;;;;29.20;47.80;;;;;;691177;28;1985;-85
2022/06/07 00:34:49;;;;;;;;;;;29.20;47.70;;;;;;691147;28;827;-84
2022/06/07 00:35:10;;;;;;;;;;;29.20;47.50;;;;;;691369;28;877;-85
2022/06/07 00:35:31;;;;;;;;;;;29.20;47.60;;;;;;691431;28;815;-85
2022/06/07 00:35:51;;;;;;;;;;;29.20;47.80;;;;;;691449;28;973;-85
2022/06/07 00:36:12;;;;;;;;;;;29.20;48.20;;;;;;691384;28;775;-85
2022/06/07 00:36:33;;;;;;;;;;;29.20;48.30;;;;;;690975;28;1237;-85
2022/06/07 00:36:54;;;;;;;;;;;29.20;47.70;;;;;;691414;28;941;-85
2022/06/07 00:37:15;;;;;;;;;;;29.20;47.60;;;;;;691462;28;795;-84
2022/06/07 00:37:35;;;;;;;;;;;29.20;47.60;;;;;;691312;28;862;-85
2022/06/07 00:37:56;;;;;;;;;;;29.20;47.50;;;;;;691431;28;810;-85
2022/06/07 00:38:16;;;;;;;;;;;29.20;47.40;;;;;;691335;28;953;-84
2022/06/07 00:38:37;;;;;;;;;;;29.20;47.70;;;;;;691098;28;796;-84
2022/06/07 00:38:57;;;;;;;;;;;29.20;47.60;;;;;;691257;28;866;-85
2022/06/07 00:39:18;;;;;;;;;;;29.20;47.60;;;;;;691061;28;1204;-85
2022/06/07 00:39:39;;;;;;;;;;;29.20;47.70;;;;;;691161;28;792;-85
2022/06/07 00:39:59;;;;;;;;;;;29.20;47.50;;;;;;691270;28;775;-84
2022/06/07 00:40:20;;;;;;;;;;;29.20;47.70;;;;;;691086;28;1351;-85
2022/06/07 00:40:42;;;;;;;;;;;29.20;47.50;;;;;;691070;28;768;-85
2022/06/07 00:41:06;;;;;;;;;;;29.20;47.50;;;;;;691090;28;814;-84
2022/06/07 00:41:26;;;;;;;;;;;29.20;47.50;;;;;;691302;28;792;-85
2022/06/07 00:41:47;;;;;;;;;;;29.20;47.50;;;;;;691126;28;878;-85
2022/06/07 00:42:08;;;;;;;;;;;29.20;47.60;;;;;;691145;28;973;-84
2022/06/07 00:42:28;;;;;;;;;;;29.20;47.50;;;;;;691472;28;795;-85
2022/06/07 00:42:49;;;;;;;;;;;29.20;47.60;;;;;;691190;28;897;-85
2022/06/07 00:43:09;;;;;;;;;;;29.20;47.50;;;;;;691367;28;831;-85
2022/06/07 00:43:31;;;;;;;;;;;29.20;47.50;;;;;;691313;28;796;-85
2022/06/07 00:44:10;;;;;;;;;;;29.20;47.50;;;;;;691473;28;890;-85
2022/06/07 00:44:42;;;;;;;;;;;29.20;47.50;;;;;;691366;28;779;-85
2022/06/07 00:45:03;;;;;;;;;;;29.20;47.60;;;;;;691166;28;1334;-83
2022/06/07 00:45:23;;;;;;;;;;;29.20;47.50;;;;;;691387;28;1334;-84
2022/06/07 00:45:44;;;;;;;;;;;29.20;47.40;;;;;;691299;28;803;-84
2022/06/07 00:46:09;;;;;;;;;;;29.30;47.50;;;;;;690951;28;1733;-85
2022/06/07 00:46:30;;;;;;;;;;;29.20;47.40;;;;;;691171;28;1171;-85
2022/06/07 00:47:00;;;;;;;;;;;29.20;47.40;;;;;;691084;28;934;-85
2022/06/07 00:47:23;;;;;;;;;;;29.20;47.40;;;;;;691116;28;966;-85
2022/06/07 00:47:43;;;;;;;;;;;29.30;47.40;;;;;;691148;28;906;-85
2022/06/07 00:48:05;;;;;;;;;;;29.20;47.50;;;;;;688033;28;988;-85
2022/06/07 00:48:25;;;;;;;;;;;29.30;47.30;;;;;;687903;28;1547;-85
2022/06/07 00:48:46;;;;;;;;;;;28.60;47.10;;;;;;688376;28;823;-84
2022/06/07 00:49:07;;;;;;;;;;;29.20;47.30;;;;;;688505;28;883;-85
2022/06/07 00:49:34;;;;;;;;;;;29.20;47.10;;;;;;688527;28;929;-85
2022/06/07 00:50:03;;;;;;;;;;;29.20;47.40;;;;;;689596;28;890;-84
2022/06/07 00:50:23;;;;;;;;;;;29.20;47.70;;;;;;691222;28;913;-85
2022/06/07 00:50:44;;;;;;;;;;;29.20;47.80;;;;;;691332;28;811;-85
2022/06/07 00:51:08;;;;;;;;;;;29.20;47.80;;;;;;691263;28;858;-84
2022/06/07 00:51:28;;;;;;;;;;;29.20;47.90;;;;;;691391;28;783;-85
2022/06/07 00:51:49;;;;;;;;;;;29.20;47.70;;;;;;691307;28;1099;-85
2022/06/07 00:52:09;;;;;;;;;;;29.20;47.80;;;;;;691224;28;981;-85
2022/06/07 00:52:31;;;;;;;;;;;29.20;47.90;;;;;;691329;28;909;-85
2022/06/07 00:52:52;;;;;;;;;;;29.20;47.50;;;;;;691376;28;838;-84
2022/06/07 00:53:21;;;;;;;;;;;29.20;47.30;;;;;;691373;28;834;-85
2022/06/07 00:53:42;;;;;;;;;;;29.20;47.30;;;;;;691275;28;822;-84
2022/06/07 00:54:02;;;;;;;;;;;29.20;47.40;;;;;;691239;28;914;-85
2022/06/07 00:54:24;;;;;;;;;;;29.20;47.50;;;;;;691287;28;1914;-84
2022/06/07 00:54:45;;;;;;;;;;;29.20;47.20;;;;;;691342;28;764;-84
2022/06/07 00:55:06;;;;;;;;;;;29.20;47.30;;;;;;691248;28;1429;-85
2022/06/07 00:55:27;;;;;;;;;;;29.20;47.30;;;;;;691417;28;827;-84
2022/06/07 00:55:48;;;;;;;;;;;29.20;47.50;;;;;;691344;28;930;-85
2022/06/07 00:56:08;;;;;;;;;;;29.10;47.30;;;;;;691295;28;865;-84
2022/06/07 00:56:29;;;;;;;;;;;29.10;47.20;;;;;;691385;28;851;-85
2022/06/07 00:56:50;;;;;;;;;;;29.10;47.50;;;;;;691173;28;992;-85
2022/06/07 00:57:11;;;;;;;;;;;29.20;47.20;;;;;;691216;28;883;-85
2022/06/07 00:57:32;;;;;;;;;;;29.20;47.70;;;;;;691330;28;795;-84
2022/06/07 00:57:53;;;;;;;;;;;29.10;47.10;;;;;;691294;28;846;-85
2022/06/07 00:58:13;;;;;;;;;;;29.10;47.20;;;;;;691270;28;918;-84
2022/06/07 00:58:35;;;;;;;;;;;29.20;47.30;;;;;;691330;28;803;-85
2022/06/07 00:58:57;;;;;;;;;;;29.20;47.10;;;;;;691310;28;811;-85
2022/06/07 00:59:18;;;;;;;;;;;29.20;47.40;;;;;;691275;28;819;-84
2022/06/07 00:59:38;;;;;;;;;;;29.20;47.30;;;;;;691387;28;838;-84
2022/06/07 00:59:59;;;;;;;;;;;29.20;47.30;;;;;;691433;28;807;-84
2022/06/07 01:00:24;;;;;;;;;;;29.10;47.40;;;;;;691311;28;879;-85
2022/06/07 01:00:45;;;;;;;;;;;29.10;47.30;;;;;;691280;28;485;-84
2022/06/07 01:01:06;;;;;;;;;;;29.10;47.50;;;;;;691206;28;890;-85
2022/06/07 01:01:27;;;;;;;;;;;29.10;47.60;;;;;;691503;28;1104;-84
2022/06/07 01:01:48;;;;;;;;;;;29.10;47.40;;;;;;691224;28;939;-85
2022/06/07 01:02:09;;;;;;;;;;;29.10;47.50;;;;;;691264;28;842;-85
2022/06/07 01:02:29;;;;;;;;;;;29.10;47.30;;;;;;691411;28;495;-85
2022/06/07 01:02:51;;;;;;;;;;;29.10;47.20;;;;;;690963;28;1374;-84
2022/06/07 01:03:12;;;;;;;;;;;29.10;47.20;;;;;;690996;28;807;-85
2022/06/07 01:03:32;;;;;;;;;;;29.10;47.20;;;;;;691116;28;831;-85
2022/06/07 01:03:53;;;;;;;;;;;29.10;47.30;;;;;;691250;28;902;-85
2022/06/07 01:04:14;;;;;;;;;;;29.10;47.20;;;;;;691007;28;799;-85
2022/06/07 01:04:34;;;;;;;;;;;29.10;47.40;;;;;;691012;28;887;-84
2022/06/07 01:04:55;;;;;;;;;;;29.10;47.40;;;;;;691332;28;874;-84
2022/06/07 01:05:16;;;;;;;;;;;29.10;48.50;;;;;;691257;28;780;-85
2022/06/07 01:05:36;;;;;;;;;;;29.10;47.30;;;;;;691357;28;792;-85
2022/06/07 01:10:43;;;;;;;;;;;29.10;47.40;;;;;;691369;28;783;-85
2022/06/07 01:10:45;;;;;;;;;;;29.00;47.30;;;;;;691286;28;624;-84
2022/06/07 01:11:06;;;;;;;;;;;29.00;47.20;;;;;;691332;28;842;-84
2022/06/07 01:11:26;;;;;;;;;;;29.00;47.20;;;;;;691273;28;854;-84
2022/06/07 01:11:47;;;;;;;;;;;29.00;47.20;;;;;;690980;28;1200;-85
2022/06/07 01:12:07;;;;;;;;;;;29.00;47.10;;;;;;691039;28;962;-85
2022/06/07 01:12:28;;;;;;;;;;;29.00;47.40;;;;;;691153;28;919;-85
2022/06/07 01:12:49;;;;;;;;;;;29.00;47.30;;;;;;687861;28;1364;-85
2022/06/07 01:13:10;;;;;;;;;;;29.00;47.30;;;;;;688313;28;732;-85
2022/06/07 01:13:33;;;;;;;;;;;29.00;47.10;;;;;;688869;28;889;-85
2022/06/07 01:13:53;;;;;;;;;;;29.00;47.40;;;;;;691126;28;952;-85
2022/06/07 01:14:14;;;;;;;;;;;29.00;47.30;;;;;;690958;28;1066;-84
2022/06/07 01:14:34;;;;;;;;;;;29.00;47.30;;;;;;691079;28;1906;-84
2022/06/07 01:14:55;;;;;;;;;;;29.10;47.40;;;;;;691358;28;942;-84
2022/06/07 01:15:16;;;;;;;;;;;30.00;48.10;;;;;;691148;28;1334;-84
2022/06/07 01:15:36;;;;;;;;;;;29.00;47.30;;;;;;691141;28;883;-84
2022/06/07 01:16:05;;;;;;;;;;;29.00;47.20;;;;;;691409;28;823;-84
2022/06/07 01:16:26;;;;;;;;;;;29.00;47.20;;;;;;691349;28;819;-85
2022/06/07 01:16:46;;;;;;;;;;;29.00;47.30;;;;;;691305;28;997;-85
2022/06/07 01:17:07;;;;;;;;;;;29.00;47.50;;;;;;691275;28;890;-84
2022/06/07 01:17:27;;;;;;;;;;;29.00;47.40;;;;;;690635;28;1251;-85
2022/06/07 01:17:48;;;;;;;;;;;29.00;47.30;;;;;;690996;28;906;-84
2022/06/07 01:18:08;;;;;;;;;;;29.00;47.30;;;;;;691084;28;862;-84
2022/06/07 01:18:29;;;;;;;;;;;29.00;47.40;;;;;;691216;28;879;-84
2022/06/07 01:18:50;;;;;;;;;;;29.00;47.30;;;;;;691012;28;1283;-85
2022/06/07 01:19:10;;;;;;;;;;;29.00;47.30;;;;;;691077;28;934;-84
2022/06/07 01:19:31;;;;;;;;;;;29.00;47.20;;;;;;691257;28;814;-85
2022/06/07 01:19:52;;;;;;;;;;;29.00;47.40;;;;;;691036;28;1526;-84
2022/06/07 01:20:12;;;;;;;;;;;29.00;47.40;;;;;;691104;28;775;-85
2022/06/07 01:20:33;;;;;;;;;;;29.00;47.40;;;;;;691037;28;849;-84
2022/06/07 01:21:11;;;;;;;;;;;29.00;47.40;;;;;;691110;28;902;-85
2022/06/07 01:21:33;;;;;;;;;;;29.00;47.30;;;;;;691143;28;811;-85
2022/06/07 01:21:54;;;;;;;;;;;29.00;47.20;;;;;;691373;28;842;-84
2022/06/07 01:22:16;;;;;;;;;;;29.00;47.40;;;;;;691238;28;905;-84
2022/06/07 01:22:36;;;;;;;;;;;28.20;46.70;;;;;;691313;28;905;-85
2022/06/07 01:22:57;;;;;;;;;;;29.00;47.30;;;;;;691378;28;831;-85
2022/06/07 01:23:18;;;;;;;;;;;29.00;47.40;;;;;;691303;28;851;-84
2022/06/07 01:23:39;;;;;;;;;;;29.00;47.30;;;;;;691227;28;822;-85
2022/06/07 01:24:00;;;;;;;;;;;29.00;47.30;;;;;;691407;28;854;-84
2022/06/07 01:24:21;;;;;;;;;;;29.00;47.30;;;;;;691174;28;953;-85
2022/06/07 01:24:41;;;;;;;;;;;29.00;47.30;;;;;;691164;28;918;-85
2022/06/07 01:25:03;;;;;;;;;;;29.00;47.30;;;;;;691248;28;862;-84
2022/06/07 01:25:23;;;;;;;;;;;29.00;47.30;;;;;;691387;28;811;-84
2022/06/07 01:25:44;;;;;;;;;;;28.90;47.40;;;;;;691183;28;901;-84
2022/06/07 01:26:04;;;;;;;;;;;29.00;47.30;;;;;;691188;28;803;-85
2022/06/07 01:26:25;;;;;;;;;;;28.90;47.30;;;;;;691334;28;827;-84
2022/06/07 01:26:46;;;;;;;;;;;28.90;47.40;;;;;;691153;28;977;-85
2022/06/07 01:27:07;;;;;;;;;;;28.90;47.30;;;;;;691302;28;846;-84
2022/06/07 01:27:28;;;;;;;;;;;29.00;47.30;;;;;;691287;28;803;-85
2022/06/07 01:27:49;;;;;;;;;;;29.00;47.30;;;;;;691287;28;792;-84
2022/06/07 01:28:09;;;;;;;;;;;28.90;47.30;;;;;;690783;28;927;-84
2022/06/07 01:28:30;;;;;;;;;;;28.90;47.30;;;;;;691092;28;953;-84
2022/06/07 01:28:50;;;;;;;;;;;28.90;47.20;;;;;;691043;28;815;-85
2022/06/07 01:29:12;;;;;;;;;;;28.90;47.40;;;;;;691051;28;914;-84
2022/06/07 01:29:32;;;;;;;;;;;28.90;47.30;;;;;;690985;28;862;-85
2022/06/07 01:29:53;;;;;;;;;;;28.90;47.20;;;;;;691091;28;1027;-84
2022/06/07 01:30:13;;;;;;;;;;;28.90;47.40;;;;;;690532;28;928;-84
2022/06/07 01:30:34;;;;;;;;;;;28.90;47.40;;;;;;691069;28;806;-84
2022/06/07 01:30:57;;;;;;;;;;;28.90;47.30;;;;;;691136;28;838;-84
2022/06/07 01:31:18;;;;;;;;;;;28.90;47.30;;;;;;691073;28;839;-85
2022/06/07 01:31:39;;;;;;;;;;;28.90;47.20;;;;;;690920;28;949;-84
2022/06/07 01:31:59;;;;;;;;;;;28.90;47.20;;;;;;691237;28;838;-84
2022/06/07 01:32:20;;;;;;;;;;;28.90;47.30;;;;;;691206;28;875;-84
2022/06/07 01:32:40;;;;;;;;;;;28.90;47.20;;;;;;691172;28;866;-84
2022/06/07 01:33:01;;;;;;;;;;;29.00;47.40;;;;;;691241;28;1317;-84
2022/06/07 01:33:21;;;;;;;;;;;29.00;47.40;;;;;;691423;28;862;-84
2022/06/07 01:33:42;;;;;;;;;;;28.90;47.30;;;;;;691233;28;854;-84
2022/06/07 01:34:03;;;;;;;;;;;28.90;47.30;;;;;;690898;28;910;-84
2022/06/07 01:34:24;;;;;;;;;;;28.90;47.30;;;;;;691039;28;1890;-84
2022/06/07 01:34:45;;;;;;;;;;;28.90;47.30;;;;;;690992;28;818;-84
2022/06/07 01:35:06;;;;;;;;;;;28.90;47.50;;;;;;691084;28;863;-84
2022/06/07 01:35:27;;;;;;;;;;;28.90;47.50;;;;;;691179;28;815;-85
2022/06/07 01:35:49;;;;;;;;;;;28.90;47.60;;;;;;691087;28;874;-85
2022/06/07 01:36:11;;;;;;;;;;;28.90;47.50;;;;;;690953;28;1120;-84
2022/06/07 01:36:32;;;;;;;;;;;28.90;47.50;;;;;;690976;28;943;-85
2022/06/07 01:36:56;;;;;;;;;;;28.90;47.50;;;;;;691208;28;870;-84
2022/06/07 01:37:18;;;;;;;;;;;28.90;47.30;;;;;;691103;28;826;-84
2022/06/07 01:37:39;;;;;;;;;;;28.90;47.30;;;;;;691031;28;1012;-84
2022/06/07 01:38:00;;;;;;;;;;;29.00;47.50;;;;;;691141;28;832;-84
2022/06/07 01:38:20;;;;;;;;;;;28.90;47.40;;;;;;691010;28;1386;-84
2022/06/07 01:38:42;;;;;;;;;;;29.00;47.40;;;;;;691206;28;946;-84
2022/06/07 01:41:54;;;;;;;;;;;29.00;47.30;;;;;;691286;28;602;-85
2022/06/07 01:42:15;;;;;;;;;;;29.00;47.20;;;;;;691276;28;819;-84
2022/06/07 01:42:35;;;;;;;;;;;29.00;47.40;;;;;;691193;28;895;-84
2022/06/07 01:42:56;;;;;;;;;;;29.00;47.30;;;;;;691224;28;943;-84
2022/06/07 01:43:17;;;;;;;;;;;29.00;47.40;;;;;;691144;28;886;-85
2022/06/07 01:43:37;;;;;;;;;;;29.00;47.40;;;;;;691249;28;847;-85
2022/06/07 01:43:59;;;;;;;;;;;29.00;47.50;;;;;;691323;28;918;-85
2022/06/07 01:44:30;;;;;;;;;;;29.00;47.30;;;;;;691084;28;1144;-84
2022/06/07 01:44:50;;;;;;;;;;;29.10;47.40;;;;;;691060;28;1150;-84
2022/06/07 01:45:11;;;;;;;;;;;29.00;47.30;;;;;;691177;28;951;-85
2022/06/07 01:45:32;;;;;;;;;;;29.00;47.30;;;;;;691207;28;970;-85
2022/06/07 01:45:52;;;;;;;;;;;29.00;47.30;;;;;;691205;28;1339;-84
2022/06/07 01:46:13;;;;;;;;;;;29.00;47.30;;;;;;691205;28;1005;-84
2022/06/07 01:46:33;;;;;;;;;;;29.00;47.30;;;;;;691279;28;957;-84
2022/06/07 01:46:55;;;;;;;;;;;29.00;47.40;;;;;;691283;28;871;-84
2022/06/07 01:47:20;;;;;;;;;;;29.00;47.20;;;;;;691225;28;846;-84
2022/06/07 01:47:41;;;;;;;;;;;29.00;47.20;;;;;;691191;28;941;-84
2022/06/07 01:48:01;;;;;;;;;;;29.00;47.10;;;;;;691205;28;879;-84
2022/06/07 01:48:22;;;;;;;;;;;29.00;47.10;;;;;;691367;28;803;-84
2022/06/07 01:48:42;;;;;;;;;;;29.10;47.20;;;;;;691262;28;810;-84
2022/06/07 01:49:03;;;;;;;;;;;29.10;47.30;;;;;;691153;28;527;-84
2022/06/07 01:49:24;;;;;;;;;;;29.00;47.30;;;;;;691336;28;830;-84
2022/06/07 01:49:44;;;;;;;;;;;29.00;47.20;;;;;;691256;28;862;-84
2022/06/07 01:50:05;;;;;;;;;;;29.10;47.30;;;;;;691199;28;905;-84
2022/06/07 01:50:26;;;;;;;;;;;29.00;47.10;;;;;;691373;28;850;-83
2022/06/07 01:50:47;;;;;;;;;;;29.00;47.30;;;;;;690980;28;1343;-85
2022/06/07 01:51:08;;;;;;;;;;;29.10;47.20;;;;;;690959;28;954;-85
2022/06/07 01:51:29;;;;;;;;;;;29.10;47.10;;;;;;691109;28;883;-84
2022/06/07 01:51:50;;;;;;;;;;;29.00;47.20;;;;;;691003;28;838;-84
2022/06/07 01:52:11;;;;;;;;;;;29.10;47.30;;;;;;688208;28;1193;-84
2022/06/07 01:52:33;;;;;;;;;;;29.10;47.10;;;;;;688828;28;937;-85
2022/06/07 01:52:53;;;;;;;;;;;29.10;47.10;;;;;;691027;28;1308;-85
2022/06/07 01:53:14;;;;;;;;;;;29.10;47.40;;;;;;691067;28;945;-85
2022/06/07 01:53:35;;;;;;;;;;;29.10;47.10;;;;;;691037;28;819;-85
2022/06/07 01:53:55;;;;;;;;;;;29.00;47.10;;;;;;691139;28;874;-85
2022/06/07 01:54:17;;;;;;;;;;;29.10;48.20;;;;;;691229;28;819;-83
2022/06/07 01:54:37;;;;;;;;;;;29.10;47.10;;;;;;691185;28;1914;-85
2022/06/07 01:54:58;;;;;;;;;;;29.10;47.10;;;;;;691512;28;783;-83
2022/06/07 01:55:19;;;;;;;;;;;29.10;47.20;;;;;;690965;28;1352;-84
2022/06/07 01:55:39;;;;;;;;;;;29.10;47.20;;;;;;690950;28;883;-84
2022/06/07 01:56:04;;;;;;;;;;;29.10;47.30;;;;;;691084;28;807;-84
2022/06/07 01:56:24;;;;;;;;;;;29.10;47.10;;;;;;691109;28;834;-84
2022/06/07 01:56:45;;;;;;;;;;;29.10;47.00;;;;;;690941;28;966;-84
2022/06/07 01:57:06;;;;;;;;;;;29.10;47.20;;;;;;690789;28;1597;-84
2022/06/07 01:57:27;;;;;;;;;;;29.10;47.00;;;;;;691179;28;811;-84
2022/06/07 01:57:48;;;;;;;;;;;29.10;47.10;;;;;;691035;28;803;-85
2022/06/07 01:58:08;;;;;;;;;;;29.10;47.10;;;;;;690918;28;895;-85
2022/06/07 01:58:29;;;;;;;;;;;29.10;47.10;;;;;;691192;28;776;-84
2022/06/07 01:58:50;;;;;;;;;;;29.10;47.10;;;;;;690977;28;926;-84
2022/06/07 01:59:10;;;;;;;;;;;29.10;47.10;;;;;;691175;28;842;-84
2022/06/07 01:59:31;;;;;;;;;;;29.10;47.10;;;;;;691319;28;842;-85
2022/06/07 01:59:52;;;;;;;;;;;29.10;47.20;;;;;;691266;28;839;-84
2022/06/07 02:00:13;;;;;;;;;;;29.10;47.30;;;;;;691206;28;872;-84
2022/06/07 02:00:33;;;;;;;;;;;29.10;47.40;;;;;;691168;28;1013;-85
2022/06/07 02:00:54;;;;;;;;;;;29.10;47.10;;;;;;691313;28;846;-84
2022/06/07 02:01:15;;;;;;;;;;;29.10;47.00;;;;;;690851;28;1110;-84
2022/06/07 02:01:36;;;;;;;;;;;29.10;47.10;;;;;;690913;28;1450;-84
2022/06/07 02:01:56;;;;;;;;;;;29.10;47.10;;;;;;691071;28;815;-84
2022/06/07 02:02:17;;;;;;;;;;;29.10;47.00;;;;;;691153;28;842;-84
2022/06/07 02:02:38;;;;;;;;;;;29.10;46.90;;;;;;691674;28;874;-84
2022/06/07 02:02:58;;;;;;;;;;;29.10;47.00;;;;;;691698;28;906;-84
2022/06/07 02:03:19;;;;;;;;;;;29.10;46.90;;;;;;691726;28;823;-84
2022/06/07 02:03:40;;;;;;;;;;;29.10;47.00;;;;;;691746;28;835;-85
2022/06/07 02:04:01;;;;;;;;;;;29.10;46.80;;;;;;691814;28;806;-83
2022/06/07 02:04:21;;;;;;;;;;;29.10;47.20;;;;;;691885;28;816;-84
2022/06/07 02:04:43;;;;;;;;;;;29.10;47.00;;;;;;691456;28;1456;-84
2022/06/07 02:05:03;;;;;;;;;;;29.00;47.10;;;;;;691473;28;839;-85
2022/06/07 02:05:24;;;;;;;;;;;29.10;47.60;;;;;;691728;28;870;-84
2022/06/07 02:05:58;;;;;;;;;;;29.10;47.10;;;;;;691552;28;883;-85
2022/06/07 02:06:18;;;;;;;;;;;29.10;46.90;;;;;;691143;28;1343;-84
2022/06/07 02:06:39;;;;;;;;;;;29.30;47.20;;;;;;691724;28;862;-84
2022/06/07 02:07:00;;;;;;;;;;;29.10;46.80;;;;;;691825;28;818;-85
2022/06/07 02:07:21;;;;;;;;;;;29.10;46.90;;;;;;691750;28;831;-83
2022/06/07 02:07:42;;;;;;;;;;;29.10;47.10;;;;;;691811;28;886;-84
2022/06/07 02:08:02;;;;;;;;;;;29.10;47.10;;;;;;691730;28;911;-84
2022/06/07 02:08:23;;;;;;;;;;;29.10;47.10;;;;;;691796;28;807;-84
2022/06/07 02:08:44;;;;;;;;;;;29.10;46.90;;;;;;691710;28;787;-84
2022/06/07 02:09:06;;;;;;;;;;;29.10;47.40;;;;;;691709;28;886;-85
2022/06/07 02:09:26;;;;;;;;;;;29.00;46.90;;;;;;691834;28;874;-85
2022/06/07 02:09:47;;;;;;;;;;;29.00;46.90;;;;;;691729;28;854;-84
2022/06/07 02:10:08;;;;;;;;;;;29.10;47.00;;;;;;691702;28;853;-85
2022/06/07 02:10:28;;;;;;;;;;;29.00;47.00;;;;;;691867;28;818;-85
2022/06/07 02:10:49;;;;;;;;;;;29.10;47.20;;;;;;691710;28;932;-85
2022/06/07 02:11:11;;;;;;;;;;;29.00;47.10;;;;;;691711;28;985;-85
2022/06/07 02:11:33;;;;;;;;;;;29.00;47.00;;;;;;691766;28;790;-85
2022/06/07 02:11:53;;;;;;;;;;;29.00;46.90;;;;;;691876;28;798;-84
2022/06/07 02:12:14;;;;;;;;;;;29.00;46.90;;;;;;691642;28;886;-85
2022/06/07 02:12:34;;;;;;;;;;;29.00;47.00;;;;;;691317;28;861;-85
2022/06/07 02:12:55;;;;;;;;;;;29.00;47.50;;;;;;691646;28;787;-84
2022/06/07 02:13:16;;;;;;;;;;;29.00;47.50;;;;;;691555;28;814;-85
2022/06/07 02:13:36;;;;;;;;;;;29.00;47.20;;;;;;691569;28;874;-85
2022/06/07 02:13:57;;;;;;;;;;;29.00;47.00;;;;;;691593;28;779;-85
2022/06/07 02:14:17;;;;;;;;;;;29.00;47.00;;;;;;688540;28;930;-85
2022/06/07 02:14:41;;;;;;;;;;;29.00;47.00;;;;;;691449;28;1898;-85
2022/06/07 02:15:03;;;;;;;;;;;29.00;47.00;;;;;;691513;28;938;-85
2022/06/07 02:15:24;;;;;;;;;;;29.00;47.10;;;;;;691543;28;538;-85
2022/06/07 02:15:45;;;;;;;;;;;29.00;47.90;;;;;;691495;28;922;-84
2022/06/07 02:16:06;;;;;;;;;;;29.00;46.90;;;;;;691593;28;866;-84
2022/06/07 02:16:26;;;;;;;;;;;29.00;47.00;;;;;;691716;28;895;-85